Time;durP1;ratioP1;P1;durP2;ratioP2;P2;SDS_P1;SDS_P2;PMS_P1;PMS_P2;Temp;Humidity;BMP_temperature;BMP_pressure;BME280_temperature;BME280_humidity;BME280_pressure;Samples;Min_cycle;Max_cycle;Signal;HPM_P1;HPM_P2
2021/04/02 00:01:47;;;;;;;30.97;25.33;;;;;;;13.72;65.61;98833.94;5045230;27;102703;-75
2021/04/02 00:04:14;;;;;;;40.53;29.07;;;;;;;13.63;66.46;98835.56;5045410;27;104012;-76
2021/04/02 00:06:41;;;;;;;35.63;27.77;;;;;;;13.56;66.59;98838.84;5044468;27;110496;-76
2021/04/02 00:09:08;;;;;;;33.20;24.13;;;;;;;13.70;65.58;98830.56;5043787;27;102768;-78
2021/04/02 00:11:36;;;;;;;34.73;25.30;;;;;;;13.74;65.59;98837.31;5045100;27;103282;-76
2021/04/02 00:14:03;;;;;;;27.43;21.33;;;;;;;13.73;65.54;98836.47;5044186;27;103813;-79
2021/04/02 00:16:30;;;;;;;38.50;28.67;;;;;;;13.67;65.76;98834.31;5043758;27;111306;-76
2021/04/02 00:18:57;;;;;;;37.77;30.27;;;;;;;13.60;66.26;98835.81;5050392;27;103187;-78
2021/04/02 00:21:24;;;;;;;35.30;25.40;;;;;;;13.58;66.10;98831.59;5044949;27;102645;-79
2021/04/02 00:23:51;;;;;;;33.60;25.87;;;;;;;13.50;66.71;98834.03;5044557;27;104846;-78
2021/04/02 00:26:22;;;;;;;38.47;29.97;;;;;;;13.22;67.82;98830.94;5042876;27;105848;-77
2021/04/02 00:28:51;;;;;;;38.60;29.70;;;;;;;13.31;67.23;98826.72;5045358;27;103079;-78
2021/04/02 00:31:18;;;;;;;42.43;31.20;;;;;;;13.21;67.77;98829.28;5042807;27;103407;-78
2021/04/02 00:33:45;;;;;;;36.73;29.93;;;;;;;13.25;67.75;98828.06;5043255;27;103756;-78
2021/04/02 00:36:12;;;;;;;35.90;27.03;;;;;;;13.25;67.66;98829.88;5043334;27;105333;-78
2021/04/02 00:38:39;;;;;;;35.27;27.73;;;;;;;13.18;67.86;98828.69;5045906;27;102465;-78
2021/04/02 00:41:09;;;;;;;38.30;30.07;;;;;;;13.21;67.73;98826.63;5043497;27;103510;-77
2021/04/02 00:43:39;;;;;;;37.90;28.17;;;;;;;13.12;67.89;98830.03;5043306;27;106039;-75
2021/04/02 00:46:09;;;;;;;43.80;31.77;;;;;;;12.83;69.36;98834.13;5041424;27;105219;-77
2021/04/02 00:48:39;;;;;;;39.00;31.63;;;;;;;12.82;69.57;98827.16;5035724;27;102587;-78
2021/04/02 00:51:08;;;;;;;40.50;30.30;;;;;;;12.75;69.91;98820.63;5046710;27;102750;-78
2021/04/02 00:53:39;;;;;;;44.83;30.47;;;;;;;12.70;69.86;98828.09;5047513;27;104899;-76
2021/04/02 00:56:08;;;;;;;37.27;28.73;;;;;;;12.55;70.42;98829.28;5046449;27;109075;-78
2021/04/02 00:58:36;;;;;;;34.20;26.47;;;;;;;12.46;70.38;98824.75;5043490;27;103096;-78
2021/04/02 01:01:05;;;;;;;32.43;26.83;;;;;;;12.36;70.80;98818.44;5039568;27;104647;-79
2021/04/02 01:03:35;;;;;;;33.27;25.87;;;;;;;12.33;70.92;98830.13;5042467;27;106129;-78
2021/04/02 01:06:08;;;;;;;31.70;24.50;;;;;;;12.25;70.88;98826.38;5043108;27;106500;-78
2021/04/02 01:08:36;;;;;;;30.83;23.13;;;;;;;12.20;71.01;98814.34;5043551;27;103129;-77
2021/04/02 01:11:10;;;;;;;25.43;21.40;;;;;;;12.30;70.55;98824.22;5044279;27;102779;-78
2021/04/02 01:13:40;;;;;;;30.67;24.37;;;;;;;12.21;70.84;98820.47;5043377;27;104102;-77
2021/04/02 01:16:11;;;;;;;30.23;21.77;;;;;;;12.21;70.61;98823.13;5038359;27;104482;-76
2021/04/02 01:18:47;;;;;;;29.83;22.10;;;;;;;12.21;70.57;98825.75;5045119;27;102670;-78
2021/04/02 01:21:23;;;;;;;23.80;18.10;;;;;;;12.24;70.32;98830.00;5037870;27;102995;-76
2021/04/02 01:24:14;;;;;;;29.90;21.60;;;;;;;12.09;70.72;98830.22;5046465;27;103915;-75
2021/04/02 01:27:08;;;;;;;27.50;20.50;;;;;;;11.97;70.94;98828.50;5042248;27;110774;-78
2021/04/02 01:29:46;;;;;;;27.37;20.00;;;;;;;11.78;71.70;98822.91;5046732;27;102937;-76
2021/04/02 01:32:17;;;;;;;23.33;19.47;;;;;;;11.77;71.52;98820.38;5046548;27;103225;-76
2021/04/02 01:34:47;;;;;;;23.30;18.53;;;;;;;11.75;71.47;98828.44;5041028;27;113088;-76
2021/04/02 01:37:23;;;;;;;21.90;17.30;;;;;;;11.79;71.35;98835.16;5046621;27;104125;-75
2021/04/02 01:39:51;;;;;;;21.27;16.83;;;;;;;11.72;71.47;98833.94;5043846;27;102972;-78
2021/04/02 01:42:21;;;;;;;21.40;15.27;;;;;;;11.59;71.70;98833.16;5049360;27;103398;-75
2021/04/02 01:44:53;;;;;;;21.87;14.70;;;;;;;11.47;71.78;98828.75;5049239;27;103095;-75
2021/04/02 01:47:23;;;;;;;19.40;14.13;;;;;;;11.43;71.91;98833.44;5046722;27;106376;-76
2021/04/02 01:49:54;;;;;;;19.13;13.83;;;;;;;11.34;72.55;98836.75;5028617;27;103644;-76
2021/04/02 01:52:24;;;;;;;16.77;12.73;;;;;;;11.34;72.32;98833.28;5037735;27;104604;-76
2021/04/02 01:54:53;;;;;;;16.53;13.10;;;;;;;11.30;72.37;98837.09;5042533;27;105919;-75
2021/04/02 01:57:23;;;;;;;18.17;12.47;;;;;;;11.34;72.21;98828.00;5046606;27;103693;-76
2021/04/02 01:59:54;;;;;;;18.90;11.67;;;;;;;11.17;72.58;98831.00;5045900;27;103373;-76
2021/04/02 02:02:24;;;;;;;15.20;11.23;;;;;;;11.25;72.25;98839.22;5040175;27;104678;-75
2021/04/02 02:04:54;;;;;;;16.87;11.53;;;;;;;11.26;72.03;98841.75;5047208;27;104443;-75
2021/04/02 02:07:23;;;;;;;15.10;12.00;;;;;;;11.19;72.32;98840.53;5044646;27;103170;-77
2021/04/02 02:09:57;;;;;;;15.97;11.90;;;;;;;11.24;72.18;98838.38;5030987;27;102964;-77
2021/04/02 02:12:31;;;;;;;15.13;10.80;;;;;;;11.18;72.21;98838.81;5035807;27;102690;-77
2021/04/02 02:15:10;;;;;;;13.30;10.10;;;;;;;11.26;71.53;98841.75;5028837;27;104847;-77
2021/04/02 02:17:40;;;;;;;10.63;8.97;;;;;;;11.12;71.70;98843.69;5041752;27;105254;-78
2021/04/02 02:20:11;;;;;;;14.33;9.40;;;;;;;11.11;71.82;98842.03;5049568;27;105409;-79
2021/04/02 02:22:39;;;;;;;11.20;8.63;;;;;;;11.05;71.81;98849.47;5043047;27;102708;-78
2021/04/02 02:25:11;;;;;;;10.97;8.60;;;;;;;11.07;71.68;98842.25;5039902;27;105074;-77
2021/04/02 02:27:44;;;;;;;11.00;7.53;;;;;;;11.02;71.59;98844.38;5043759;27;103154;-77
2021/04/02 02:30:15;;;;;;;12.40;8.40;;;;;;;11.01;71.26;98853.25;5039692;27;103279;-76
2021/04/02 02:32:44;;;;;;;11.63;7.83;;;;;;;10.92;71.41;98853.91;5044399;27;103244;-75
2021/04/02 02:35:13;;;;;;;10.30;7.20;;;;;;;10.75;72.14;98846.31;5043212;27;104352;-76
2021/04/02 02:37:47;;;;;;;13.03;7.57;;;;;;;10.69;72.48;98857.34;5044105;27;103208;-76
2021/04/02 02:40:18;;;;;;;14.23;7.97;;;;;;;10.74;72.16;98852.59;5043360;27;103020;-76
2021/04/02 02:42:47;;;;;;;8.67;6.10;;;;;;;10.99;71.01;98855.19;5043739;27;103017;-76
2021/04/02 02:45:17;;;;;;;6.70;4.80;;;;;;;11.22;69.61;98852.69;5044138;27;104634;-77
2021/04/02 02:47:44;;;;;;;11.17;7.27;;;;;;;10.94;71.37;98851.16;5041868;27;103775;-76
2021/04/02 02:50:15;;;;;;;8.93;6.03;;;;;;;11.06;70.78;98860.84;5027710;27;103031;-76
2021/04/02 02:52:43;;;;;;;11.27;7.10;;;;;;;11.21;69.60;98865.06;5047350;27;103259;-76
2021/04/02 02:55:12;;;;;;;9.13;6.30;;;;;;;11.20;70.18;98858.06;5045107;27;105330;-78
2021/04/02 02:57:42;;;;;;;7.43;5.93;;;;;;;11.16;70.12;98859.25;5034734;27;104523;-78
2021/04/02 03:00:12;;;;;;;6.67;5.23;;;;;;;11.16;69.25;98861.03;5045203;27;102890;-76
2021/04/02 03:02:43;;;;;;;9.97;7.50;;;;;;;11.16;69.82;98863.69;5043757;27;103045;-75
2021/04/02 03:05:14;;;;;;;8.43;6.77;;;;;;;11.09;70.63;98854.53;5037169;27;105522;-76
2021/04/02 03:07:43;;;;;;;11.30;8.80;;;;;;;11.19;69.67;98855.53;5046071;27;104334;-76
2021/04/02 03:10:12;;;;;;;9.90;7.67;;;;;;;10.93;70.91;98865.34;5041853;27;104433;-77
2021/04/02 03:12:45;;;;;;;12.90;7.87;;;;;;;10.48;72.21;98870.25;5046729;27;102729;-76
2021/04/02 03:15:16;;;;;;;13.03;8.77;;;;;;;10.69;70.92;98865.28;5044622;27;106508;-76
2021/04/02 03:17:50;;;;;;;9.03;7.60;;;;;;;10.66;70.32;98868.13;5044090;27;103729;-75
2021/04/02 03:20:19;;;;;;;11.10;6.90;;;;;;;10.64;70.26;98869.19;5045876;27;103224;-77
2021/04/02 03:22:46;;;;;;;11.90;7.80;;;;;;;10.61;70.22;98872.06;5045624;27;103114;-76
2021/04/02 03:25:20;;;;;;;7.73;6.10;;;;;;;10.20;70.90;98869.59;5044345;27;106502;-76
2021/04/02 03:27:54;;;;;;;11.33;6.37;;;;;;;9.89;71.46;98868.16;5034425;27;104036;-77
2021/04/02 03:30:30;;;;;;;5.23;4.73;;;;;;;9.96;70.75;98873.88;5030334;27;103817;-77
2021/04/02 03:33:09;;;;;;;6.80;4.73;;;;;;;10.18;69.80;98868.88;5042140;27;103147;-78
2021/04/02 03:35:37;;;;;;;5.90;4.60;;;;;;;10.18;69.86;98874.16;5036261;27;105142;-76
2021/04/02 03:38:11;;;;;;;7.80;5.27;;;;;;;10.18;69.67;98872.34;5043855;27;104716;-77
2021/04/02 03:40:39;;;;;;;7.03;6.23;;;;;;;10.19;69.70;98873.22;5044300;27;103063;-76
2021/04/02 03:43:09;;;;;;;9.07;6.37;;;;;;;10.04;69.73;98879.47;5043133;27;105103;-77
2021/04/02 03:45:40;;;;;;;7.93;4.87;;;;;;;9.96;69.39;98877.38;5044477;27;104312;-77
2021/04/02 03:48:12;;;;;;;9.30;5.00;;;;;;;9.78;69.29;98884.69;5043909;27;103735;-76
2021/04/02 03:50:44;;;;;;;6.47;5.00;;;;;;;9.89;69.11;98876.91;5038926;27;103166;-77
2021/04/02 03:53:20;;;;;;;8.03;4.10;;;;;;;9.61;67.47;98881.47;5046144;27;102640;-77
2021/04/02 03:55:52;;;;;;;4.60;3.10;;;;;;;9.52;67.85;98885.56;5042151;27;106653;-76
2021/04/02 03:58:22;;;;;;;3.87;2.83;;;;;;;9.51;67.10;98883.88;5044687;27;103706;-76
2021/04/02 04:00:54;;;;;;;5.73;3.07;;;;;;;9.38;67.71;98892.66;5040883;27;104121;-77
2021/04/02 04:03:24;;;;;;;3.50;2.83;;;;;;;9.40;66.98;98886.38;5034672;27;102676;-77
2021/04/02 04:05:58;;;;;;;6.43;3.57;;;;;;;9.55;66.50;98890.63;5044254;27;105465;-76
2021/04/02 04:08:26;;;;;;;3.33;2.30;;;;;;;9.71;66.19;98888.69;5039428;27;103675;-78
2021/04/02 04:10:59;;;;;;;4.93;2.60;;;;;;;9.68;66.26;98883.63;5038580;27;103136;-77
2021/04/02 04:13:31;;;;;;;5.70;3.73;;;;;;;9.58;65.67;98887.81;5038904;27;103203;-76
2021/04/02 04:16:02;;;;;;;6.07;3.10;;;;;;;9.69;64.77;98890.56;5026775;27;105972;-78
2021/04/02 04:18:32;;;;;;;3.50;2.57;;;;;;;9.71;65.00;98893.94;5043224;27;104330;-76
2021/04/02 04:21:03;;;;;;;5.43;2.73;;;;;;;9.71;64.14;98893.13;5038177;27;103034;-76
2021/04/02 04:23:44;;;;;;;3.77;2.63;;;;;;;9.70;64.23;98899.34;5039706;27;103151;-76
2021/04/02 04:26:13;;;;;;;4.57;2.40;;;;;;;9.73;64.48;98899.16;5041643;27;103522;-76
2021/04/02 04:28:41;;;;;;;2.77;2.23;;;;;;;9.68;64.04;98898.59;5034388;27;104505;-76
2021/04/02 04:31:09;;;;;;;3.00;2.17;;;;;;;9.35;63.97;98891.06;5037163;27;102843;-76
2021/04/02 04:33:40;;;;;;;5.03;3.00;;;;;;;9.08;64.15;98892.84;5044611;27;103735;-76
2021/04/02 04:36:08;;;;;;;3.17;2.00;;;;;;;9.27;63.86;98894.19;5044771;27;103949;-76
2021/04/02 04:38:38;;;;;;;4.27;2.63;;;;;;;8.93;64.18;98896.41;5045900;27;103752;-76
2021/04/02 04:41:07;;;;;;;3.60;2.40;;;;;;;8.99;64.31;98906.59;5025573;27;104083;-77
2021/04/02 04:43:35;;;;;;;3.83;2.50;;;;;;;9.12;63.35;98896.97;5045225;27;102957;-77
2021/04/02 04:46:02;;;;;;;4.27;2.40;;;;;;;9.10;63.45;98897.06;5032613;27;103897;-77
2021/04/02 04:48:30;;;;;;;3.33;2.00;;;;;;;8.93;64.25;98899.06;5047059;27;103965;-76
2021/04/02 04:50:59;;;;;;;2.50;1.70;;;;;;;9.12;63.85;98899.63;5046059;27;104194;-76
2021/04/02 04:53:28;;;;;;;3.50;2.20;;;;;;;8.86;63.88;98892.50;5039570;27;103355;-77
2021/04/02 04:56:05;;;;;;;3.20;2.30;;;;;;;8.94;64.30;98895.50;5065176;27;104832;-77
2021/04/02 04:58:36;;;;;;;4.47;2.43;;;;;;;8.86;63.87;98897.75;5061427;27;103165;-77
2021/04/02 05:01:08;;;;;;;4.27;2.50;;;;;;;8.74;64.70;98909.91;5048037;27;103092;-77
2021/04/02 05:03:36;;;;;;;2.90;2.57;;;;;;;8.57;64.71;98908.28;5042571;27;103271;-76
2021/04/02 05:06:07;;;;;;;4.40;2.50;;;;;;;8.16;65.93;98899.38;5048315;27;103876;-76
2021/04/02 05:08:39;;;;;;;6.20;2.70;;;;;;;8.16;66.22;98902.88;5047705;27;103442;-76
2021/04/02 05:11:08;;;;;;;3.10;1.97;;;;;;;8.40;65.52;98900.56;5044911;27;104456;-77
2021/04/02 05:13:36;;;;;;;5.67;2.40;;;;;;;8.03;66.29;98911.53;5047070;27;103044;-76
2021/04/02 05:16:05;;;;;;;4.77;2.80;;;;;;;8.00;66.92;98906.50;5048200;27;104361;-76
2021/04/02 05:18:33;;;;;;;5.47;2.30;;;;;;;7.92;66.65;98909.56;5044939;27;103743;-77
2021/04/02 05:21:00;;;;;;;4.60;2.93;;;;;;;7.76;67.55;98913.16;5053152;27;103329;-76
2021/04/02 05:23:28;;;;;;;5.33;3.33;;;;;;;7.65;67.87;98911.16;5047697;27;103343;-77
2021/04/02 05:25:55;;;;;;;5.57;3.10;;;;;;;7.65;68.14;98907.66;5039460;27;103816;-76
2021/04/02 05:28:22;;;;;;;5.63;3.37;;;;;;;7.53;68.50;98917.94;5048074;27;103814;-76
2021/04/02 05:30:50;;;;;;;4.07;2.90;;;;;;;7.55;68.75;98923.13;5040518;27;102829;-76
2021/04/02 05:33:17;;;;;;;5.73;3.57;;;;;;;7.52;68.86;98916.25;5047192;27;103052;-76
2021/04/02 05:35:44;;;;;;;4.63;2.93;;;;;;;7.41;69.39;98918.63;5039645;27;104477;-77
2021/04/02 05:38:11;;;;;;;3.43;2.77;;;;;;;7.64;69.07;98927.00;5044844;27;104962;-78
2021/04/02 05:41:02;;;;;;;7.93;4.00;;;;;;;7.79;68.69;98929.63;5047883;27;103176;-74
2021/04/02 05:43:36;;;;;;;3.70;3.37;;;;;;;7.77;68.92;98926.22;5048069;27;102595;-76
2021/04/02 05:46:04;;;;;;;6.17;3.50;;;;;;;7.77;69.20;98920.97;5046801;27;104910;-79
2021/04/02 05:48:32;;;;;;;6.33;3.50;;;;;;;7.85;69.48;98917.91;5047715;27;103210;-80
2021/04/02 05:50:59;;;;;;;4.37;3.40;;;;;;;7.79;69.55;98918.25;5047736;27;103515;-81
2021/04/02 05:53:29;;;;;;;4.90;3.57;;;;;;;7.86;69.85;98924.88;5046569;27;103169;-80
2021/04/02 05:55:59;;;;;;;4.80;3.57;;;;;;;7.66;70.12;98927.78;5046769;27;104210;-78
2021/04/02 05:58:27;;;;;;;7.40;4.00;;;;;;;7.58;70.51;98923.78;5046893;27;110549;-76
2021/04/02 06:00:55;;;;;;;5.30;3.80;;;;;;;7.64;70.38;98925.22;5044008;27;104204;-79
2021/04/02 06:03:23;;;;;;;5.77;3.80;;;;;;;7.83;69.91;98930.31;5047572;27;103118;-75
2021/04/02 06:05:50;;;;;;;6.40;3.97;;;;;;;7.73;70.16;98923.84;5046294;27;109778;-76
2021/04/02 06:08:18;;;;;;;8.73;4.33;;;;;;;7.81;70.04;98921.63;5047706;27;103827;-73
2021/04/02 06:10:45;;;;;;;4.30;3.80;;;;;;;7.85;69.94;98931.91;5046166;27;102981;-75
2021/04/02 06:13:12;;;;;;;7.63;4.27;;;;;;;7.93;69.51;98931.44;5047510;27;103859;-76
2021/04/02 06:15:40;;;;;;;5.30;4.43;;;;;;;7.86;69.73;98930.13;5047183;27;103174;-77
2021/04/02 06:18:09;;;;;;;4.33;3.93;;;;;;;8.32;68.67;98923.88;5045654;27;110977;-76
2021/04/02 06:20:38;;;;;;;5.43;4.47;;;;;;;8.30;68.10;98935.44;5049814;27;103283;-74
2021/04/02 06:23:16;;;;;;;5.37;4.43;;;;;;;8.14;68.83;98930.19;5046840;27;103145;-80
2021/04/02 06:25:51;;;;;;;6.53;4.97;;;;;;;8.10;68.38;98933.94;5042225;27;103927;-79
2021/04/02 06:28:21;;;;;;;7.37;4.40;;;;;;;8.36;68.06;98932.44;5042382;27;103840;-76
2021/04/02 06:30:59;;;;;;;5.37;4.50;;;;;;;8.49;67.33;98934.25;5046965;27;103032;-75
2021/04/02 06:33:35;;;;;;;6.13;4.90;;;;;;;8.49;67.56;98926.34;5042436;27;103005;-78
2021/04/02 06:36:10;;;;;;;5.43;4.93;;;;;;;8.36;68.08;98929.81;5046528;27;103916;-77
2021/04/02 06:38:41;;;;;;;6.67;5.00;;;;;;;8.48;67.99;98932.53;5028225;27;103968;-81
2021/04/02 06:41:09;;;;;;;5.20;4.50;;;;;;;8.33;67.94;98941.38;5035258;27;103369;-81
2021/04/02 06:43:43;;;;;;;4.33;3.80;;;;;;;8.65;67.75;98945.53;5036838;27;103275;-78
2021/04/02 06:46:17;;;;;;;5.73;5.13;;;;;;;8.49;67.96;98951.84;5038016;27;103914;-79
2021/04/02 06:48:44;;;;;;;7.03;4.97;;;;;;;8.68;66.81;98952.41;5032635;27;105374;-79
2021/04/02 06:51:13;;;;;;;6.47;4.80;;;;;;;8.59;67.72;98953.81;5041877;27;103084;-77
2021/04/02 06:53:42;;;;;;;6.63;5.13;;;;;;;8.49;67.81;98951.84;5040727;27;103314;-78
2021/04/02 06:56:11;;;;;;;6.37;4.87;;;;;;;8.76;67.30;98957.25;5031465;27;104629;-77
2021/04/02 06:58:39;;;;;;;5.90;4.43;;;;;;;8.74;67.51;98958.16;5039306;27;104808;-78
2021/04/02 07:01:08;;;;;;;6.10;4.80;;;;;;;8.89;66.78;98960.81;5039032;27;103569;-80
2021/04/02 07:03:42;;;;;;;6.80;5.53;;;;;;;8.72;66.94;98957.41;5033589;27;103171;-77
2021/04/02 07:06:10;;;;;;;6.40;5.60;;;;;;;8.89;67.07;98966.94;5047250;27;104471;-78
2021/04/02 07:08:41;;;;;;;7.43;5.10;;;;;;;8.87;66.54;98962.69;5040550;27;103307;-77
2021/04/02 07:11:10;;;;;;;7.20;6.17;;;;;;;9.13;67.05;98975.94;5037612;27;103452;-76
2021/04/02 07:13:43;;;;;;;7.03;5.93;;;;;;;8.96;66.22;98975.28;5038576;27;104293;-78
2021/04/02 07:16:11;;;;;;;7.83;6.20;;;;;;;9.08;66.68;98966.63;5036424;27;105954;-80
2021/04/02 07:18:38;;;;;;;7.90;6.03;;;;;;;9.05;66.89;98972.09;5029840;27;106236;-77
2021/04/02 07:21:07;;;;;;;6.87;6.17;;;;;;;9.46;65.64;98966.88;5031322;27;103517;-77
2021/04/02 07:23:34;;;;;;;7.27;6.13;;;;;;;9.41;65.78;98969.78;5039009;27;103103;-76
2021/04/02 07:26:02;;;;;;;7.50;6.30;;;;;;;9.26;66.14;98968.13;5040433;27;105021;-79
2021/04/02 07:28:29;;;;;;;7.00;6.03;;;;;;;9.34;66.28;98965.88;5031166;27;104191;-77
2021/04/02 07:30:58;;;;;;;8.37;6.67;;;;;;;9.56;65.96;98962.69;5035988;27;103414;-78
2021/04/02 07:33:26;;;;;;;6.77;6.07;;;;;;;9.63;64.95;98967.47;5028585;27;103229;-77
2021/04/02 07:35:58;;;;;;;6.80;6.20;;;;;;;9.68;64.91;98973.31;5035559;27;104804;-78
2021/04/02 07:38:28;;;;;;;8.83;6.50;;;;;;;9.59;65.61;98973.91;5039151;27;103607;-77
2021/04/02 07:40:55;;;;;;;6.37;5.73;;;;;;;9.87;65.26;98971.19;5036124;27;104277;-77
2021/04/02 07:43:29;;;;;;;7.80;6.50;;;;;;;10.00;64.85;98975.63;5039767;27;103517;-77
2021/04/02 07:46:00;;;;;;;7.27;6.07;;;;;;;10.40;63.33;98975.59;5038195;27;103746;-77
2021/04/02 07:48:27;;;;;;;8.03;7.10;;;;;;;10.36;63.77;98970.59;5041778;27;103751;-77
2021/04/02 07:50:57;;;;;;;7.90;7.13;;;;;;;10.59;63.75;98971.69;5041819;27;103308;-77
2021/04/02 07:53:44;;;;;;;8.10;6.77;;;;;;;10.61;63.15;98973.28;5044480;27;102863;-78
2021/04/02 07:56:13;;;;;;;8.73;6.33;;;;;;;11.16;62.20;98974.75;5041312;27;104519;-78
2021/04/02 07:58:45;;;;;;;7.90;7.20;;;;;;;10.70;62.72;98977.94;5044023;27;103094;-77
2021/04/02 08:01:13;;;;;;;7.93;6.93;;;;;;;11.55;60.82;98964.84;5042276;27;103932;-77
2021/04/02 08:03:40;;;;;;;8.23;6.90;;;;;;;11.39;61.90;98963.41;5044712;27;103863;-77
2021/04/02 08:06:10;;;;;;;8.30;7.43;;;;;;;11.56;60.08;98968.34;5038811;27;104027;-77
2021/04/02 08:08:44;;;;;;;8.47;7.63;;;;;;;12.44;58.18;98969.72;5042292;27;103237;-77
2021/04/02 08:11:19;;;;;;;8.77;7.87;;;;;;;12.57;57.72;98975.81;5036411;27;103147;-76
2021/04/02 08:13:58;;;;;;;8.70;7.43;;;;;;;11.51;59.09;98973.09;5043111;27;103056;-79
2021/04/02 08:16:46;;;;;;;7.83;7.13;;;;;;;11.18;59.98;98975.47;5044298;27;104397;-78
2021/04/02 08:19:17;;;;;;;8.63;7.50;;;;;;;11.94;59.28;98966.41;5036023;27;108103;-77
2021/04/02 08:21:46;;;;;;;8.20;7.40;;;;;;;12.26;57.71;98976.41;5045188;27;102942;-78
2021/04/02 08:24:15;;;;;;;8.13;7.40;;;;;;;11.80;60.25;98971.88;5043141;27;103015;-76
2021/04/02 08:26:44;;;;;;;8.77;7.20;;;;;;;11.72;60.65;98970.72;5044613;27;103981;-77
2021/04/02 08:29:13;;;;;;;8.20;7.17;;;;;;;12.38;58.05;98975.50;5042905;27;112120;-79
2021/04/02 08:31:44;;;;;;;8.07;7.27;;;;;;;12.46;57.03;98970.47;5046272;27;103950;-79
2021/04/02 08:34:14;;;;;;;8.13;7.33;;;;;;;12.49;57.58;98975.53;5048081;27;102833;-82
2021/04/02 08:36:41;;;;;;;8.33;7.47;;;;;;;12.41;57.35;98975.25;5045568;27;106217;-82
2021/04/02 08:39:08;;;;;;;7.80;7.13;;;;;;;14.05;53.89;98971.91;5047068;27;104152;-78
2021/04/02 08:41:36;;;;;;;8.10;7.30;;;;;;;13.36;55.20;98968.66;5046928;27;104184;-81
2021/04/02 08:44:04;;;;;;;8.87;8.03;;;;;;;12.75;56.57;98974.38;5046531;27;102972;-77
2021/04/02 08:46:38;;;;;;;7.80;7.13;;;;;;;12.88;56.89;98975.16;5046844;27;103792;-79
2021/04/02 08:49:06;;;;;;;7.80;7.00;;;;;;;13.13;56.02;98974.97;5045570;27;103872;-80
2021/04/02 08:51:34;;;;;;;10.10;7.67;;;;;;;14.22;52.75;98966.06;5048436;27;102653;-83
2021/04/02 08:54:02;;;;;;;8.57;7.67;;;;;;;12.95;55.45;98971.03;5047703;27;103103;-81
2021/04/02 08:56:31;;;;;;;8.23;7.40;;;;;;;14.00;53.58;98968.81;5045596;27;104077;-82
2021/04/02 08:59:02;;;;;;;8.00;6.97;;;;;;;14.68;53.10;98967.56;5057974;27;102819;-79
2021/04/02 09:01:30;;;;;;;8.10;7.30;;;;;;;14.67;52.92;98971.19;5056616;27;103076;-82
2021/04/02 09:03:58;;;;;;;9.00;8.10;;;;;;;14.46;52.33;98964.03;5047632;27;102778;-81
2021/04/02 09:06:26;;;;;;;8.30;7.50;;;;;;;13.79;54.12;98959.91;5046683;27;105137;-81
2021/04/02 09:08:54;;;;;;;8.50;7.67;;;;;;;14.86;52.80;98961.50;5047794;27;104242;-81
2021/04/02 09:11:21;;;;;;;8.47;7.57;;;;;;;13.42;53.15;98958.56;5040245;27;103091;-82
2021/04/02 09:13:50;;;;;;;9.40;8.40;;;;;;;12.70;56.77;98965.94;5048857;27;102931;-82
2021/04/02 09:16:20;;;;;;;8.83;8.00;;;;;;;12.72;56.93;98964.88;5046325;27;105023;-82
2021/04/02 09:18:50;;;;;;;8.87;8.17;;;;;;;13.42;54.01;98962.03;5034845;27;104796;-81
2021/04/02 09:21:19;;;;;;;8.67;7.77;;;;;;;14.74;51.80;98956.38;5048035;27;103055;-82
2021/04/02 09:23:50;;;;;;;9.40;7.93;;;;;;;13.64;54.00;98963.81;5046495;27;102971;-81
2021/04/02 09:26:17;;;;;;;9.20;8.20;;;;;;;13.01;56.00;98965.28;5046487;27;104126;-83
2021/04/02 09:28:45;;;;;;;8.67;7.83;;;;;;;14.13;52.49;98961.50;5038749;27;104594;-83
2021/04/02 09:31:24;;;;;;;8.47;7.77;;;;;;;14.12;53.29;98959.81;5047358;27;103034;-82
2021/04/02 09:33:53;;;;;;;8.97;8.07;;;;;;;13.06;54.36;98965.75;5046343;27;102971;-84
2021/04/02 09:36:22;;;;;;;9.03;8.13;;;;;;;12.98;55.95;98962.84;5038237;27;103996;-82
2021/04/02 09:38:50;;;;;;;9.50;8.57;;;;;;;13.10;56.63;98961.09;5046328;27;104941;-81
2021/04/02 09:41:24;;;;;;;8.80;8.00;;;;;;;13.50;55.14;98964.09;5029208;27;103753;-83
2021/04/02 09:43:53;;;;;;;9.83;8.03;;;;;;;13.11;54.96;98957.44;5039401;27;103181;-84
2021/04/02 09:46:31;;;;;;;9.30;8.30;;;;;;;12.89;55.27;98952.97;5039780;27;104827;-84
2021/04/02 09:49:04;;;;;;;8.43;7.53;;;;;;;13.86;53.22;98953.16;5043052;27;103927;-83
2021/04/02 09:51:32;;;;;;;8.37;7.57;;;;;;;14.46;51.94;98958.72;5043081;27;103132;-84
2021/04/02 09:54:00;;;;;;;8.33;7.50;;;;;;;15.47;50.29;98950.88;5044736;27;102968;-84
2021/04/02 09:56:28;;;;;;;8.37;7.57;;;;;;;15.73;50.28;98951.22;5024698;27;106621;-84
2021/04/02 09:58:55;;;;;;;9.47;8.57;;;;;;;14.61;50.76;98961.06;5043706;27;103196;-84
2021/04/02 10:01:22;;;;;;;8.67;7.77;;;;;;;14.71;51.10;98946.03;5044624;27;103090;-84
2021/04/02 10:03:51;;;;;;;8.57;7.77;;;;;;;13.98;53.91;98960.09;5043778;27;103363;-86
2021/04/02 10:06:19;;;;;;;9.10;8.20;;;;;;;13.97;52.72;98954.91;5036857;27;104397;-85
2021/04/02 10:08:47;;;;;;;8.40;7.50;;;;;;;13.24;53.08;98961.69;5030690;27;106191;-85
2021/04/02 10:11:15;;;;;;;8.83;7.93;;;;;;;13.19;53.25;98958.53;5032039;27;103644;-84
2021/04/02 10:13:42;;;;;;;10.43;9.33;;;;;;;12.92;55.37;98955.38;5049407;27;103434;-84
2021/04/02 10:16:09;;;;;;;9.23;8.33;;;;;;;14.14;52.23;98952.56;5045664;27;103798;-84
2021/04/02 10:18:38;;;;;;;9.13;8.23;;;;;;;13.81;52.03;98950.84;5041686;27;105336;-84
2021/04/02 10:21:07;;;;;;;9.90;8.90;;;;;;;13.09;53.57;98956.75;5040830;27;102628;-84
2021/04/02 10:23:35;;;;;;;7.17;6.60;;;;;;;13.59;53.61;98955.38;5038457;27;103041;-85
2021/04/02 10:26:03;;;;;;;8.37;7.57;;;;;;;14.00;53.91;98960.00;5038421;27;103832;-84
2021/04/02 10:28:30;;;;;;;9.53;8.73;;;;;;;13.42;53.90;98962.03;5043304;27;107183;-81
2021/04/02 10:30:59;;;;;;;9.40;8.50;;;;;;;13.70;52.35;98958.00;5044620;27;102833;-79
2021/04/02 10:33:26;;;;;;;9.40;8.60;;;;;;;12.94;53.23;98963.22;5044056;27;103186;-82
2021/04/02 10:35:53;;;;;;;7.77;7.07;;;;;;;14.43;50.26;98952.81;5033924;27;104083;-85
2021/04/02 10:38:22;;;;;;;9.60;8.60;;;;;;;15.03;49.09;98947.59;5034388;27;103646;-84
2021/04/02 10:40:50;;;;;;;8.80;8.03;;;;;;;14.59;49.51;98947.06;5043858;27;103106;-78
2021/04/02 10:43:17;;;;;;;9.67;8.87;;;;;;;14.44;51.43;98949.19;5045070;27;103361;-79
2021/04/02 10:45:44;;;;;;;9.63;8.07;;;;;;;14.51;49.58;98945.88;5044284;27;104072;-79
2021/04/02 10:48:12;;;;;;;8.60;7.73;;;;;;;14.44;48.23;98946.53;5039592;27;106621;-82
2021/04/02 10:50:41;;;;;;;8.23;7.43;;;;;;;15.18;48.03;98940.13;5048137;27;102599;-83
2021/04/02 10:53:09;;;;;;;8.17;7.40;;;;;;;13.52;48.41;98939.09;5045957;27;102910;-82
2021/04/02 10:55:38;;;;;;;7.80;7.10;;;;;;;13.74;48.64;98941.72;5044785;27;104525;-86
2021/04/02 10:58:06;;;;;;;7.53;6.90;;;;;;;15.11;48.19;98941.59;5042466;27;103953;-83
2021/04/02 11:00:33;;;;;;;7.43;6.57;;;;;;;15.30;45.69;98935.53;5043966;27;103002;-86
2021/04/02 11:03:01;;;;;;;6.33;5.83;;;;;;;15.70;44.75;98930.19;5043437;27;102885;-81
2021/04/02 11:05:29;;;;;;;7.70;7.00;;;;;;;15.03;45.52;98941.44;5040355;27;103240;-83
2021/04/02 11:07:56;;;;;;;7.93;7.13;;;;;;;14.36;48.76;98941.03;5038990;27;103757;-82
2021/04/02 11:10:23;;;;;;;8.73;7.10;;;;;;;14.29;49.32;98930.00;5035806;27;102981;-81
2021/04/02 11:12:51;;;;;;;7.63;6.93;;;;;;;14.14;50.12;98933.97;5043991;27;103111;-82
2021/04/02 11:15:19;;;;;;;8.07;6.77;;;;;;;14.12;50.42;98933.22;5043345;27;103926;-83
2021/04/02 11:17:47;;;;;;;6.60;6.07;;;;;;;13.38;49.54;98934.06;5047616;27;103768;-79
2021/04/02 11:20:17;;;;;;;6.20;5.70;;;;;;;13.44;49.36;98935.38;5045505;27;103530;-85
2021/04/02 11:22:44;;;;;;;6.20;5.60;;;;;;;13.72;48.85;98934.84;5042084;27;102978;-83
2021/04/02 11:25:12;;;;;;;6.33;5.67;;;;;;;14.09;48.80;98927.34;5035219;27;104230;-81
2021/04/02 11:27:40;;;;;;;6.27;5.67;;;;;;;14.29;48.51;98924.69;5046351;27;104533;-82
2021/04/02 11:30:12;;;;;;;6.20;5.70;;;;;;;14.54;47.93;98928.00;5043050;27;103165;-82
2021/04/02 11:32:40;;;;;;;6.80;5.87;;;;;;;14.44;47.61;98934.09;5039513;27;102938;-85
2021/04/02 11:35:10;;;;;;;6.30;5.70;;;;;;;14.72;47.92;98915.78;5042121;27;104701;-81
2021/04/02 11:37:37;;;;;;;6.17;5.67;;;;;;;14.23;47.91;98924.41;5043865;27;103208;-83